• Join FlightAware (Why Join?)
  • Login
  • US Flag 
09:08PM EDT


 

Airport Tracker/Info


-or-


 

Live Flight TrackerFlight Track Log ✈ N45NS ✈ 08-Mar-2014 ✈ KSTL - KEGE

Flight Track Log - Related Links

Times and Time Zones

All times are in EST time to prevent confusion due to time zone crossing. See the N45NS flight status page for this flight to view local times or setup timezone preferences in your user account.

Time Position Orientation Groundspeed Altitude Reporting Facility
EST Latitude Longitude Course Direction KTS MPH feet Rate Location/Type
08:58AM 38.7833 -90.4333 305° West 222 255 3,600  Level Gateway (St. Louis) TRACON
08:59AM 38.8150 -90.5322 292° West 250 288 7,800 3,480 Climbing Kansas City Center
09:00AM 38.8300 -90.6236 282° West 264 304 11,600 3,540 Climbing Kansas City Center
09:01AM 38.8467 -90.7100 284° West 256 295 15,100 2,880 Climbing Kansas City Center
09:02AM 38.8633 -90.7981 284° West 253 291 17,600 2,400 Climbing Kansas City Center
09:03AM 38.8828 -90.8964 284° West 275 316 20,100 2,820 Climbing Kansas City Center
09:04AM 38.9067 -91.0197 284° West 292 336 23,400 2,700 Climbing Kansas City Center
09:05AM 38.9264 -91.1247 284° West 298 343 25,700 2,160 Climbing Kansas City Center
09:06AM 38.9467 -91.2322 284° West 306 352 27,900 2,040 Climbing Kansas City Center
09:07AM 38.9683 -91.3397 285° West 307 353 29,900 1,260 Climbing Kansas City Center
09:08AM 38.9897 -91.4550 283° West 324 373 30,500 1,380 Climbing Kansas City Center
09:09AM 39.0114 -91.5733 283° West 336 387 32,800 1,680 Climbing Kansas City Center
09:10AM 39.0353 -91.7022 283° West 335 386 34,000 1,320 Climbing Kansas City Center
09:11AM 39.0578 -91.8231 284° West 339 390 35,500 1,320 Climbing Kansas City Center
09:12AM 39.0797 -91.9419 283° West 340 391 36,800 1,260 Climbing Kansas City Center
09:13AM 39.1008 -92.0592 283° West 340 391 38,200 1,200 Climbing Kansas City Center
09:14AM 39.1183 -92.1731 281° West 330 380 39,300 840 Climbing Kansas City Center
09:15AM 39.1253 -92.2842 275° West 319 367 40,000 300 Climbing Kansas City Center
09:16AM 39.1342 -92.3983 276° West 317 365 40,000  Level Kansas City Center
09:17AM 39.1439 -92.5203 276° West 330 380 40,000  Level Kansas City Center
09:18AM 39.1519 -92.6472 275° West 344 396 40,000  Level Kansas City Center
09:19AM 39.1633 -92.7917 276° West 355 409 40,000  Level Kansas City Center
09:20AM 39.1722 -92.9236 275° West 365 420 40,000  Level Kansas City Center
09:21AM 39.1811 -93.0567 275° West 369 425 40,000  Level Kansas City Center
09:22AM 39.1903 -93.1867 275° West 369 425 40,000  Level Kansas City Center
09:23AM 39.1989 -93.3175 275° West 369 425 40,000  Level Kansas City Center
09:24AM 39.2089 -93.4656 275° West 369 425 40,000  Level Kansas City Center
09:25AM 39.2175 -93.5903 275° West 368 423 40,000  Level Kansas City Center
09:26AM 39.2272 -93.7369 275° West 367 422 40,000  Level Kansas City Center
09:27AM 39.2353 -93.8628 275° West 367 422 40,000  Level Kansas City Center
09:28AM 39.2428 -93.9878 274° West 367 422 40,000  Level Kansas City Center
09:29AM 39.2514 -94.1336 274° West 367 422 40,000  Level Kansas City Center
09:30AM 39.2589 -94.2603 274° West 367 422 40,000  Level Kansas City Center
09:31AM 39.2672 -94.4058 274° West 367 422 40,000  Level Kansas City Center
09:32AM 39.2747 -94.5325 274° West 367 422 40,000  Level Kansas City Center
09:33AM 39.2808 -94.6581 274° West 368 423 40,000  Level Kansas City Center
09:34AM 39.2914 -94.8047 275° West 368 423 40,000  Level Kansas City Center
09:36AM 39.3078 -94.9303 280° West 370 426 40,000  Level Kansas City Center
09:37AM 39.3244 -95.0772 278° West 371 427 40,000  Level Kansas City Center
09:38AM 39.3406 -95.2111 279° West 375 432 40,000  Level Kansas City Center
09:39AM 39.3569 -95.3481 279° West 374 430 40,000  Level Kansas City Center
09:40AM 39.3708 -95.4739 278° West 374 430 40,000  Level Kansas City Center
09:41AM 39.3853 -95.6003 278° West 374 430 40,000  Level Kansas City Center
09:42AM 39.4014 -95.7486 278° West 374 430 40,000  Level Kansas City Center
09:43AM 39.4150 -95.8772 278° West 375 432 40,000  Level Kansas City Center
09:44AM 39.4317 -96.0264 278° West 375 432 40,000  Level Kansas City Center
09:45AM 39.4453 -96.1536 278° West 375 432 40,000  Level Kansas City Center
09:46AM 39.4594 -96.3003 277° West 376 433 40,000  Level Kansas City Center
09:47AM 39.4725 -96.4331 277° West 376 433 40,000  Level Kansas City Center
09:48AM 39.4872 -96.5617 278° West 376 433 40,000  Level Kansas City Center
09:49AM 39.5014 -96.7153 277° West 379 436 40,000  Level Kansas City Center
09:50AM 39.5161 -96.8447 278° West 383 441 40,000  Level Kansas City Center
09:51AM 39.5278 -96.9756 277° West 382 440 40,000  Level Kansas City Center
09:52AM 39.5419 -97.1125 278° West 383 441 40,000  Level Kansas City Center
09:53AM 39.5553 -97.2597 277° West 383 441 40,000  Level Kansas City Center
09:54AM 39.5678 -97.3983 277° West 383 441 40,000  Level Kansas City Center
09:55AM 39.5817 -97.5364 277° West 383 441 40,000  Level Kansas City Center
09:56AM 39.5947 -97.6753 277° West 384 442 40,000  Level Kansas City Center
09:57AM 39.6103 -97.8422 277° West 385 443 40,000  Level Kansas City Center
09:58AM 39.6228 -97.9675 277° West 390 449 40,000  Level Kansas City Center
09:59AM 39.6356 -98.1064 277° West 390 449 40,000  Level Kansas City Center
10:00AM 39.6467 -98.2439 276° West 389 448 40,000  Level Kansas City Center
10:01AM 39.6636 -98.4269 277° West 387 445 40,000  Level Denver Center
10:03AM 39.6778 -98.5961 276° West 388 447 40,000  Level Minneapolis Center
10:04AM 39.6903 -98.7358 277° West 389 448 40,000  Level Minneapolis Center
10:05AM 39.7019 -98.8769 276° West 389 448 40,000  Level Minneapolis Center
10:06AM 39.7106 -98.9900 276° West 391 450 40,000  Level Denver Center
10:07AM 39.7242 -99.1583 276° West 391 450 40,000  Level Denver Center
10:08AM 39.7361 -99.3000 276° West 391 450 40,000  Level Denver Center
10:09AM 39.7489 -99.4678 276° West 391 450 40,000  Level Denver Center
10:10AM 39.7614 -99.6389 275° West 392 451 40,000  Level Denver Center
10:11AM 39.7719 -99.7811 276° West 392 451 40,000  Level Denver Center
10:12AM 39.7828 -99.9244 276° West 395 455 40,000  Level Denver Center
10:13AM 39.7931 -100.0669 275° West 395 455 40,000  Level Denver Center
10:14AM 39.8039 -100.2114 276° West 396 456 40,000  Level Denver Center
10:15AM 39.8150 -100.3703 275° West 396 456 40,000  Level Denver Center
10:16AM 39.8247 -100.5078 275° West 398 458 40,000  Level Denver Center
10:17AM 39.8333 -100.6464 275° West 398 458 40,000  Level Denver Center
10:18AM 39.8450 -100.8108 275° West 402 463 40,000  Level Denver Center
10:19AM 39.8542 -100.9503 275° West 403 464 40,000  Level Denver Center
10:20AM 39.8636 -101.1133 274° West 403 464 40,000  Level Denver Center
10:21AM 39.8731 -101.2542 275° West 403 464 40,000  Level Denver Center
10:22AM 39.8811 -101.3944 274° West 406 467 40,000  Level Denver Center
10:23AM 39.8906 -101.5564 274° West 404 465 40,000  Level Denver Center
10:24AM 39.8986 -101.6961 274° West 404 465 40,000  Level Denver Center
10:25AM 39.9075 -101.8575 274° West 403 464 40,000  Level Denver Center
10:26AM 39.9161 -101.9967 275° West 403 464 40,000  Level Denver Center
10:27AM 39.9236 -102.1356 274° West 403 464 40,000  Level Denver Center
10:28AM 39.9319 -102.2972 274° West 401 461 40,000  Level Denver Center
10:29AM 39.9397 -102.4356 274° West 401 461 40,000  Level Denver Center
10:30AM 39.9478 -102.5972 274° West 401 461 40,000  Level Denver Center
10:31AM 39.9528 -102.7375 273° West 400 460 40,000  Level Denver Center
10:32AM 39.9592 -102.8806 273° West 398 458 40,000  Level Denver Center
10:34AM 39.9672 -103.0250 274° West 400 460 40,000  Level Denver Center
10:35AM 39.9728 -103.1703 273° West 401 461 40,000  Level Denver Center
10:36AM 39.9794 -103.3144 273° West 403 464 40,000  Level Denver Center
10:37AM 39.9872 -103.4903 273° West 404 465 40,000  Level Denver Center
10:38AM 39.9931 -103.6364 273° West 404 465 40,000  Level Denver Center
10:39AM 39.9997 -103.7828 273° West 406 467 40,000  Level Denver Center
10:40AM 40.0044 -103.9286 272° West 406 467 40,000 -60 Level Denver Center
10:41AM 40.0122 -104.1036 273° West 406 467 39,900 -960 Descending Denver Center
10:42AM 40.0183 -104.2814 273° West 410 472 37,900 -1,980 Descending Denver Center
10:43AM 40.0239 -104.4333 273° West 417 480 35,900 -1,800 Descending Denver Center
10:44AM 40.0289 -104.5872 272° West 430 495 34,200 -2,160 Descending Denver Center
10:45AM 40.0342 -104.7381 273° West 427 491 31,500 -2,280 Descending Denver Center
10:46AM 40.0328 -104.8900 269° West 426 490 29,500 -2,100 Descending Denver Center
10:47AM 40.0314 -105.0639 269° West 407 468 27,100 -1,260 Descending Denver Center
10:48AM 40.0286 -105.2044 269° West 394 453 27,000 -60 Descending Denver Center
10:49AM 40.0261 -105.3464 269° West 393 452 27,000 -660 Level Denver Center
10:50AM 40.0231 -105.4850 268° West 390 449 25,700 -1,380 Descending Denver Center
10:51AM 40.0211 -105.6217 269° West 382 440 24,200 -840 Descending Denver Center
10:52AM 40.0181 -105.7544 268° West 371 427 24,000 -120 Descending Denver Center
10:53AM 40.0150 -105.9136 269° West 369 425 24,000  Level Denver Center
10:54AM 40.0125 -106.0308 268° West 322 371 24,000  Level Denver Center
10:55AM 40.0108 -106.1311 269° West 279 321 24,000  Level Denver Center
10:57AM 40.0083 -106.2297 268° West 274 315 24,000  Level Denver Center
10:58AM 40.0042 -106.3514 267° West 277 319 24,000 -960 Level Denver Center
10:59AM 40.0006 -106.4717 268° West 277 319 22,100 -1,020 Descending Denver Center
11:00AM 39.9733 -106.5622 249° West 271 312 22,000 -60 Descending Denver Center
11:01AM 40.0172 -106.5667 356° North 216 249 22,000  Level Denver Center
11:02AM 40.0083 -106.4831 98° East 220 253 22,000  Level Denver Center
11:03AM 39.9889 -106.4053 108° East 242 278 22,000  Level Denver Center
11:04AM 39.9361 -106.4525 214° Southwest 276 318 22,000  Level Denver Center
11:05AM 39.9608 -106.5464 289° West 253 291 22,000  Level Denver Center
11:06AM 40.0100 -106.5411 North 231 266 22,000  Level Denver Center
11:07AM 40.0042 -106.4431 94° East 238 274 22,000  Level Denver Center
11:08AM 39.9503 -106.4050 152° Southeast 276 318 22,000  Level Denver Center
11:09AM 39.9350 -106.4939 257° West 265 305 22,000  Level Denver Center
11:10AM 39.9858 -106.5719 310° West 246 283 22,000  Level Denver Center
11:11AM 40.0083 -106.4997 68° East 242 278 22,000  Level Denver Center
11:12AM 39.9994 -106.4139 98° East 241 277 22,000  Level Denver Center
11:13AM 39.9433 -106.4131 179° South 280 322 22,000  Level Denver Center
11:14AM 39.9431 -106.5161 270° West 252 290 22,000  Level Denver Center
11:15AM 39.9922 -106.5681 321° Northwest 229 264 22,000  Level Denver Center
11:16AM 40.0078 -106.4883 76° East 215 247 22,000  Level Denver Center
11:17AM 39.9983 -106.4114 99° East 215 247 22,000  Level Denver Center
11:18AM 39.9419 -106.4444 204° Southwest 253 291 22,000  Level Denver Center
11:19AM 39.9617 -106.5289 287° West 233 268 22,000  Level Denver Center
11:20AM 40.0056 -106.5492 341° North 214 246 22,000  Level Denver Center
11:21AM 40.0078 -106.4725 88° East 213 245 22,000  Level Denver Center
11:23AM 39.9678 -106.4075 129° Southeast 248 285 22,000  Level Denver Center
11:24AM 39.9453 -106.4822 249° West 244 281 22,000  Level Denver Center
11:25AM 39.9753 -106.5511 300° West 230 265 22,000  Level Denver Center
11:26AM 40.0106 -106.5069 44° Northeast 205 236 22,000 -480 Level Denver Center
11:27AM 40.0028 -106.4317 98° East 226 260 21,100 -540 Descending Denver Center
11:28AM 39.9372 -106.4353 182° South 280 322 21,000 -60 Descending Denver Center
11:29AM 39.9453 -106.5078 278° West 252 290 21,000  Level Denver Center
11:30AM 39.9839 -106.5661 311° West 247 284 21,000 -780 Level Denver Center
11:31AM 40.0083 -106.4794 70° East 236 272 19,400 -960 Descending Denver Center
11:32AM 39.9836 -106.4050 113° Southeast 241 277 19,000 -240 Descending Denver Center
11:33AM 39.9400 -106.4606 224° Southwest 247 284 19,000 -540 Level Denver Center
11:34AM 39.9581 -106.5439 286° West 242 278 17,900 -1,260 Descending Denver Center
11:35AM 40.0114 -106.5817 332° Northwest 228 262 16,400 -1,440 Descending Denver Center
11:36AM 40.0783 -106.6197 336° Northwest 226 260 15,000 -720 Descending Denver Center
11:37AM 40.0719 -106.5594 98° East 218 251 15,000 -360 Level Denver Center
11:38AM 40.0019 -106.5547 177° South 238 274 14,300 -480 Descending Denver Center
11:39AM 39.9214 -106.5464 175° South 265 305 14,000 -180 Descending Denver Center
11:40AM 39.8369 -106.5375 175° South 285 328 14,000 -300 Level Denver Center
11:41AM 39.7647 -106.5414 182° South 266 306 13,400 -540 Descending Denver Center
11:42AM 39.6967 -106.5753 201° Southwest 230 265 12,900 -960 Descending Denver Center
11:43AM 39.6822 -106.6497 256° West 214 246 11,500 -1,260 Descending Denver Center
11:44AM 39.6719 -106.7167 259° West 193 222 10,300 -1,200 Descending Denver Center
11:45AM 39.6631 -106.7747 259° West 170 196 9,100 -1,140 Descending Denver Center
11:46AM 39.6511 -106.8317 255° West 167 192 8,000 -1,080 Descending Denver Center
11:47AM 39.6456 -106.8853 262° West 158 182 6,900 -1,080 Descending Denver Center